Time;durP1;ratioP1;P1;durP2;ratioP2;P2;SDS_P1;SDS_P2;PMS_P1;PMS_P2;Temp;Humidity;BMP_temperature;BMP_pressure;BME280_temperature;BME280_humidity;BME280_pressure;Samples;Min_cycle;Max_cycle;Signal;HPM_P1;HPM_P2
2023/04/08 00:00:00;;;;;;;0.50;0.50;;;;;;;;;;4975332;28;58516;-71
2023/04/08 00:02:25;;;;;;;1.15;0.77;;;;;;;;;;4971825;28;58622;-72
2023/04/08 00:04:50;;;;;;;0.77;0.70;;;;;;;;;;4969010;28;58858;-72
2023/04/08 00:07:16;;;;;;;1.45;0.70;;;;;;;;;;4970046;28;58744;-72
2023/04/08 00:09:41;;;;;;;0.87;0.50;;;;;;;;;;4972245;28;58744;-72
2023/04/08 00:12:06;;;;;;;1.00;0.90;;;;;;;;;;4969354;28;58128;-71
2023/04/08 00:14:31;;;;;;;0.73;0.73;;;;;;;;;;4971790;28;58865;-72
2023/04/08 00:16:56;;;;;;;0.70;0.70;;;;;;;;;;4972931;28;58477;-72
2023/04/08 00:19:22;;;;;;;0.73;0.73;;;;;;;;;;4975273;28;58735;-72
2023/04/08 00:21:47;;;;;;;0.60;0.60;;;;;;;;;;4972721;28;59782;-71
2023/04/08 00:24:12;;;;;;;0.60;0.60;;;;;;;;;;4968609;28;60724;-72
2023/04/08 00:26:37;;;;;;;0.63;0.63;;;;;;;;;;4964082;28;58376;-72
2023/04/08 00:29:03;;;;;;;1.02;0.93;;;;;;;;;;4969822;28;59167;-72
2023/04/08 00:31:28;;;;;;;2.17;0.90;;;;;;;;;;4969080;28;58533;-72
2023/04/08 00:33:53;;;;;;;0.63;0.63;;;;;;;;;;4971797;28;59721;-72
2023/04/08 00:36:18;;;;;;;0.60;0.60;;;;;;;;;;4963921;28;58522;-72
2023/04/08 00:38:43;;;;;;;0.70;0.70;;;;;;;;;;4972058;28;58838;-72
2023/04/08 00:41:09;;;;;;;0.70;0.60;;;;;;;;;;4971600;28;58532;-72
2023/04/08 00:43:34;;;;;;;0.50;0.50;;;;;;;;;;4970025;28;58355;-72
2023/04/08 00:46:00;;;;;;;0.90;0.80;;;;;;;;;;4966299;28;58901;-72
2023/04/08 00:48:25;;;;;;;0.60;0.60;;;;;;;;;;4968756;28;60044;-72
2023/04/08 00:50:50;;;;;;;0.90;0.90;;;;;;;;;;4970659;28;60023;-72
2023/04/08 00:53:17;;;;;;;0.60;0.60;;;;;;;;;;4965929;28;58775;-71
2023/04/08 00:55:42;;;;;;;1.30;1.25;;;;;;;;;;4967031;28;58664;-72
2023/04/08 00:58:07;;;;;;;0.40;0.40;;;;;;;;;;4967255;28;58463;-71
2023/04/08 01:00:34;;;;;;;0.50;0.50;;;;;;;;;;4970023;28;58629;-71
2023/04/08 01:03:16;;;;;;;1.23;1.13;;;;;;;;;;4970113;28;58930;-71
2023/04/08 01:05:51;;;;;;;0.65;0.65;;;;;;;;;;4968973;28;58811;-72
2023/04/08 01:08:17;;;;;;;0.50;0.50;;;;;;;;;;4963771;28;58916;-72
2023/04/08 01:10:44;;;;;;;0.53;0.53;;;;;;;;;;4966176;28;58494;-72
2023/04/08 01:13:11;;;;;;;0.50;0.50;;;;;;;;;;4971345;28;58740;-72
2023/04/08 01:15:37;;;;;;;0.63;0.63;;;;;;;;;;4967381;28;58800;-71
2023/04/08 01:18:05;;;;;;;0.90;0.90;;;;;;;;;;4965998;28;58541;-71
2023/04/08 01:20:31;;;;;;;0.50;0.50;;;;;;;;;;4969452;28;58710;-72
2023/04/08 01:22:56;;;;;;;0.77;0.77;;;;;;;;;;4972699;28;58668;-72
2023/04/08 01:25:23;;;;;;;0.67;0.67;;;;;;;;;;4970485;28;58351;-72
2023/04/08 01:27:48;;;;;;;0.75;0.75;;;;;;;;;;4968427;28;60472;-72
2023/04/08 01:30:14;;;;;;;0.52;0.52;;;;;;;;;;4966258;28;58827;-72
2023/04/08 01:32:40;;;;;;;0.85;0.70;;;;;;;;;;4970673;28;58415;-72
2023/04/08 01:35:06;;;;;;;0.65;0.65;;;;;;;;;;4966983;28;58435;-71
2023/04/08 01:37:32;;;;;;;0.57;0.57;;;;;;;;;;4971826;28;58356;-71
2023/04/08 01:39:57;;;;;;;0.60;0.60;;;;;;;;;;4965924;28;58659;-71
2023/04/08 01:42:24;;;;;;;1.05;0.75;;;;;;;;;;4969740;28;58437;-72
2023/04/08 01:44:50;;;;;;;0.75;0.75;;;;;;;;;;4971040;28;58839;-71
2023/04/08 01:47:15;;;;;;;0.73;0.70;;;;;;;;;;4968429;28;58386;-71
2023/04/08 01:49:41;;;;;;;0.68;0.68;;;;;;;;;;4961132;28;59196;-72
2023/04/08 01:52:08;;;;;;;0.50;0.50;;;;;;;;;;4967420;28;58667;-71
2023/04/08 01:54:34;;;;;;;0.52;0.52;;;;;;;;;;4970511;28;58734;-71
2023/04/08 01:57:00;;;;;;;1.20;0.63;;;;;;;;;;4967686;28;58697;-72
2023/04/08 01:59:29;;;;;;;0.60;0.60;;;;;;;;;;4965344;28;58729;-71
2023/04/08 02:01:55;;;;;;;0.60;0.60;;;;;;;;;;4964417;28;58574;-71
2023/04/08 02:04:20;;;;;;;0.82;0.82;;;;;;;;;;4967211;28;58931;-71
2023/04/08 02:06:45;;;;;;;0.93;0.93;;;;;;;;;;4967261;28;58694;-71
2023/04/08 02:09:11;;;;;;;1.00;0.90;;;;;;;;;;4969310;28;59386;-72
2023/04/08 02:11:36;;;;;;;1.20;1.00;;;;;;;;;;4965567;28;59078;-72
2023/04/08 02:14:01;;;;;;;0.93;0.80;;;;;;;;;;4970555;28;60081;-72
2023/04/08 02:16:41;;;;;;;0.70;0.60;;;;;;;;;;4968407;28;59630;-71
2023/04/08 02:19:13;;;;;;;0.55;0.55;;;;;;;;;;4967034;28;59669;-72
2023/04/08 02:21:43;;;;;;;0.60;0.60;;;;;;;;;;4966775;28;58534;-72
2023/04/08 02:24:09;;;;;;;0.50;0.50;;;;;;;;;;4970494;28;58749;-71
2023/04/08 02:26:35;;;;;;;0.80;0.80;;;;;;;;;;4970604;28;58866;-72
2023/04/08 02:29:02;;;;;;;0.57;0.57;;;;;;;;;;4969338;28;60005;-71
2023/04/08 02:31:27;;;;;;;0.77;0.60;;;;;;;;;;4966683;28;58279;-71
2023/04/08 02:33:54;;;;;;;0.60;0.60;;;;;;;;;;4963752;28;58761;-71
2023/04/08 02:36:20;;;;;;;0.80;0.75;;;;;;;;;;4967143;28;59709;-72
2023/04/08 02:38:48;;;;;;;0.73;0.73;;;;;;;;;;4969184;28;58852;-72
2023/04/08 02:41:15;;;;;;;0.93;0.80;;;;;;;;;;4966923;28;59151;-71
2023/04/08 02:43:40;;;;;;;1.10;0.88;;;;;;;;;;4967249;28;58217;-72
2023/04/08 02:46:06;;;;;;;0.77;0.77;;;;;;;;;;4971081;28;58831;-72
2023/04/08 02:48:32;;;;;;;0.60;0.60;;;;;;;;;;4964025;28;58985;-72
2023/04/08 02:50:57;;;;;;;0.55;0.55;;;;;;;;;;4966161;28;58647;-72
2023/04/08 02:53:22;;;;;;;0.73;0.73;;;;;;;;;;4972140;28;58661;-72
2023/04/08 02:55:47;;;;;;;0.57;0.57;;;;;;;;;;4968903;28;58904;-71
2023/04/08 02:58:12;;;;;;;0.82;0.82;;;;;;;;;;4969410;28;58470;-72
2023/04/08 03:00:38;;;;;;;0.73;0.73;;;;;;;;;;4971888;28;58453;-71
2023/04/08 03:03:04;;;;;;;0.57;0.57;;;;;;;;;;4972209;28;58869;-71
2023/04/08 03:05:29;;;;;;;0.82;0.80;;;;;;;;;;4964493;28;58915;-71
2023/04/08 03:07:54;;;;;;;0.60;0.60;;;;;;;;;;4968035;28;58709;-72
2023/04/08 03:10:19;;;;;;;0.80;0.80;;;;;;;;;;4973959;28;58709;-72
2023/04/08 03:12:44;;;;;;;0.80;0.80;;;;;;;;;;4968442;28;58613;-71
2023/04/08 03:15:09;;;;;;;1.60;0.97;;;;;;;;;;4961256;28;59420;-72
2023/04/08 03:17:35;;;;;;;1.23;1.05;;;;;;;;;;4969290;28;58766;-72
2023/04/08 03:20:03;;;;;;;0.80;0.77;;;;;;;;;;4971562;28;58920;-72
2023/04/08 03:22:28;;;;;;;0.57;0.50;;;;;;;;;;4971726;28;58830;-72
2023/04/08 03:24:53;;;;;;;1.10;1.00;;;;;;;;;;4973476;28;60426;-72
2023/04/08 03:27:19;;;;;;;2.25;0.60;;;;;;;;;;4963635;28;58216;-72
2023/04/08 03:29:45;;;;;;;0.60;0.60;;;;;;;;;;4969668;28;58680;-72
2023/04/08 03:32:10;;;;;;;0.70;0.70;;;;;;;;;;4973651;28;58751;-71
2023/04/08 03:34:35;;;;;;;0.82;0.82;;;;;;;;;;4977615;28;58882;-72
2023/04/08 03:37:01;;;;;;;0.90;0.90;;;;;;;;;;4966767;28;58659;-72
2023/04/08 03:39:26;;;;;;;0.40;0.40;;;;;;;;;;4965212;28;58563;-72
2023/04/08 03:41:51;;;;;;;0.60;0.60;;;;;;;;;;4972622;28;59703;-72
2023/04/08 03:44:16;;;;;;;0.63;0.63;;;;;;;;;;4966707;28;58751;-72
2023/04/08 03:46:41;;;;;;;0.67;0.67;;;;;;;;;;4971594;28;59247;-71
2023/04/08 03:49:06;;;;;;;0.70;0.70;;;;;;;;;;4972755;28;58520;-72
2023/04/08 03:51:32;;;;;;;0.60;0.60;;;;;;;;;;4972562;28;58473;-71
2023/04/08 03:53:57;;;;;;;0.60;0.60;;;;;;;;;;4969618;28;58726;-72
2023/04/08 03:56:22;;;;;;;0.87;0.80;;;;;;;;;;4971842;28;58304;-72
2023/04/08 03:58:47;;;;;;;0.80;0.80;;;;;;;;;;4964864;28;58240;-72
2023/04/08 04:01:12;;;;;;;0.50;0.50;;;;;;;;;;4972618;28;58580;-71
2023/04/08 04:03:38;;;;;;;0.60;0.60;;;;;;;;;;4970286;28;58564;-72
2023/04/08 04:06:03;;;;;;;0.63;0.63;;;;;;;;;;4971236;28;58448;-71
2023/04/08 04:08:28;;;;;;;0.85;0.82;;;;;;;;;;4966593;28;58423;-72
2023/04/08 04:10:54;;;;;;;0.70;0.70;;;;;;;;;;4968103;28;58776;-71
2023/04/08 04:13:19;;;;;;;0.83;0.77;;;;;;;;;;4970135;28;58276;-71
2023/04/08 04:15:44;;;;;;;0.70;0.70;;;;;;;;;;4968845;28;58733;-71
2023/04/08 04:18:09;;;;;;;0.67;0.67;;;;;;;;;;4971826;28;58494;-72
2023/04/08 04:20:37;;;;;;;0.90;0.80;;;;;;;;;;4968480;28;58848;-71
2023/04/08 04:23:02;;;;;;;0.70;0.70;;;;;;;;;;4971796;28;58379;-72
2023/04/08 04:25:27;;;;;;;0.55;0.55;;;;;;;;;;4971112;28;58603;-72
2023/04/08 04:27:52;;;;;;;0.73;0.73;;;;;;;;;;4972073;28;58786;-72
2023/04/08 04:30:18;;;;;;;0.70;0.70;;;;;;;;;;4966503;28;58491;-71
2023/04/08 04:32:43;;;;;;;0.43;0.43;;;;;;;;;;4971640;28;58762;-72
2023/04/08 04:35:09;;;;;;;0.70;0.70;;;;;;;;;;4967376;28;58773;-71
2023/04/08 04:37:35;;;;;;;0.60;0.60;;;;;;;;;;4972079;28;58837;-71
2023/04/08 04:40:00;;;;;;;0.63;0.63;;;;;;;;;;4971264;28;58461;-71
2023/04/08 04:42:25;;;;;;;0.73;0.73;;;;;;;;;;4969605;28;58700;-72
2023/04/08 04:44:50;;;;;;;0.68;0.68;;;;;;;;;;4974587;28;58504;-72
2023/04/08 04:47:15;;;;;;;0.63;0.60;;;;;;;;;;4969723;28;58501;-72
2023/04/08 04:49:41;;;;;;;0.80;0.63;;;;;;;;;;4972119;28;58547;-72
2023/04/08 04:52:06;;;;;;;0.93;0.82;;;;;;;;;;4966038;28;58511;-71
2023/04/08 04:54:31;;;;;;;0.88;0.88;;;;;;;;;;4971313;28;58413;-72
2023/04/08 04:56:56;;;;;;;0.40;0.40;;;;;;;;;;4974759;28;57875;-71
2023/04/08 04:59:21;;;;;;;0.60;0.60;;;;;;;;;;4971520;28;58427;-72
2023/04/08 05:01:47;;;;;;;0.70;0.70;;;;;;;;;;4972795;28;58503;-72
2023/04/08 05:04:12;;;;;;;1.35;0.70;;;;;;;;;;4967797;28;57960;-72
2023/04/08 05:06:37;;;;;;;1.20;0.70;;;;;;;;;;4975594;28;58757;-72
2023/04/08 05:09:02;;;;;;;0.68;0.68;;;;;;;;;;4970240;28;58723;-72
2023/04/08 05:11:27;;;;;;;1.23;1.13;;;;;;;;;;4969006;28;60526;-72
2023/04/08 05:13:52;;;;;;;0.85;0.85;;;;;;;;;;4970959;28;57858;-72
2023/04/08 05:16:17;;;;;;;0.70;0.70;;;;;;;;;;4969947;28;58643;-72
2023/04/08 05:18:43;;;;;;;0.60;0.60;;;;;;;;;;4969452;28;57867;-72
2023/04/08 05:21:08;;;;;;;0.53;0.53;;;;;;;;;;4973307;28;58683;-71
2023/04/08 05:23:33;;;;;;;0.93;0.80;;;;;;;;;;4974185;28;58318;-72
2023/04/08 05:25:58;;;;;;;0.60;0.60;;;;;;;;;;4963530;28;58499;-72
2023/04/08 05:28:24;;;;;;;0.77;0.77;;;;;;;;;;4972157;28;58163;-72
2023/04/08 05:30:50;;;;;;;0.45;0.45;;;;;;;;;;4972348;28;58677;-72
2023/04/08 05:33:15;;;;;;;0.63;0.63;;;;;;;;;;4967343;28;58923;-72
2023/04/08 05:35:40;;;;;;;0.73;0.73;;;;;;;;;;4970510;28;60366;-71
2023/04/08 05:38:06;;;;;;;0.60;0.60;;;;;;;;;;4969822;28;58906;-71
2023/04/08 05:40:31;;;;;;;0.50;0.40;;;;;;;;;;4965412;28;58185;-72
2023/04/08 05:42:56;;;;;;;0.60;0.60;;;;;;;;;;4968901;28;58629;-71
2023/04/08 05:45:21;;;;;;;0.88;0.82;;;;;;;;;;4971276;28;57930;-72
2023/04/08 05:47:46;;;;;;;0.77;0.77;;;;;;;;;;4964408;28;59330;-72
2023/04/08 05:50:12;;;;;;;2.03;0.88;;;;;;;;;;4975108;28;58427;-71
2023/04/08 05:52:40;;;;;;;0.83;0.83;;;;;;;;;;4969431;28;58513;-71
2023/04/08 05:55:06;;;;;;;0.55;0.55;;;;;;;;;;4964981;28;58782;-71
2023/04/08 05:57:31;;;;;;;0.60;0.60;;;;;;;;;;4961667;28;58306;-71
2023/04/08 05:59:56;;;;;;;0.73;0.70;;;;;;;;;;4972565;28;58203;-71
2023/04/08 06:02:21;;;;;;;0.60;0.47;;;;;;;;;;4968190;28;58422;-71
2023/04/08 06:04:46;;;;;;;0.82;0.82;;;;;;;;;;4969465;28;58823;-71
2023/04/08 06:07:11;;;;;;;0.70;0.70;;;;;;;;;;4972153;28;58588;-71
2023/04/08 06:09:36;;;;;;;0.60;0.60;;;;;;;;;;4975902;28;58295;-72
2023/04/08 06:12:02;;;;;;;0.60;0.60;;;;;;;;;;4981108;28;58762;-71
2023/04/08 06:14:27;;;;;;;1.42;1.30;;;;;;;;;;4969000;28;59108;-71
2023/04/08 06:16:53;;;;;;;0.60;0.60;;;;;;;;;;4966728;28;58773;-71
2023/04/08 06:19:18;;;;;;;0.73;0.73;;;;;;;;;;4966005;28;58768;-72
2023/04/08 06:21:43;;;;;;;2.83;0.80;;;;;;;;;;4980142;28;59149;-72
2023/04/08 06:24:09;;;;;;;0.77;0.77;;;;;;;;;;4975331;28;58422;-71
2023/04/08 06:26:34;;;;;;;0.80;0.80;;;;;;;;;;4974535;28;58285;-72
2023/04/08 06:29:00;;;;;;;1.13;0.75;;;;;;;;;;4973025;28;59473;-72
2023/04/08 06:31:25;;;;;;;0.65;0.60;;;;;;;;;;4974470;28;59123;-72
2023/04/08 06:33:51;;;;;;;0.77;0.70;;;;;;;;;;4976272;28;58392;-72
2023/04/08 06:36:16;;;;;;;1.25;0.77;;;;;;;;;;4976838;28;59012;-72
2023/04/08 06:38:41;;;;;;;2.13;0.80;;;;;;;;;;4976371;28;58348;-72
2023/04/08 06:41:07;;;;;;;0.82;0.82;;;;;;;;;;4971497;28;59298;-71
2023/04/08 06:43:32;;;;;;;0.90;0.70;;;;;;;;;;4977855;28;58630;-71
2023/04/08 06:45:58;;;;;;;0.88;0.68;;;;;;;;;;4976455;28;58765;-72
2023/04/08 06:48:27;;;;;;;0.93;0.93;;;;;;;;;;4974894;28;59038;-72
2023/04/08 06:50:52;;;;;;;0.80;0.73;;;;;;;;;;4968401;28;58455;-71
2023/04/08 06:53:17;;;;;;;1.45;1.17;;;;;;;;;;4969244;28;58279;-71
2023/04/08 06:55:43;;;;;;;3.17;1.00;;;;;;;;;;4977063;28;58399;-72
2023/04/08 06:58:08;;;;;;;1.67;1.48;;;;;;;;;;4978250;28;59400;-72
2023/04/08 07:00:33;;;;;;;2.47;1.40;;;;;;;;;;4982116;28;58609;-72
2023/04/08 07:02:58;;;;;;;2.28;1.25;;;;;;;;;;4976761;28;58804;-72
2023/04/08 07:05:23;;;;;;;3.08;1.73;;;;;;;;;;4980221;28;58527;-72
2023/04/08 07:07:48;;;;;;;5.60;1.10;;;;;;;;;;4980626;28;58683;-72
2023/04/08 07:10:14;;;;;;;2.43;1.40;;;;;;;;;;4976375;28;59339;-72
2023/04/08 07:12:39;;;;;;;4.68;1.30;;;;;;;;;;4974985;28;58229;-72
2023/04/08 07:15:05;;;;;;;4.78;1.42;;;;;;;;;;4978291;28;59099;-72
2023/04/08 07:17:31;;;;;;;2.10;1.30;;;;;;;;;;4979433;28;59503;-72
2023/04/08 07:19:56;;;;;;;7.03;2.22;;;;;;;;;;4983148;28;58678;-72
2023/04/08 07:22:22;;;;;;;2.60;1.42;;;;;;;;;;4976062;28;58584;-72
2023/04/08 07:24:48;;;;;;;1.77;1.27;;;;;;;;;;4975821;28;58337;-72
2023/04/08 07:27:14;;;;;;;1.20;1.08;;;;;;;;;;4972541;28;58870;-71
2023/04/08 07:29:39;;;;;;;3.15;1.70;;;;;;;;;;4975118;28;58806;-71
2023/04/08 07:32:04;;;;;;;12.73;1.88;;;;;;;;;;4982765;28;58570;-73
2023/04/08 07:34:30;;;;;;;1.45;1.35;;;;;;;;;;4975428;28;60685;-71
2023/04/08 07:36:55;;;;;;;3.20;1.00;;;;;;;;;;4975964;28;58282;-71
2023/04/08 07:39:20;;;;;;;4.37;1.90;;;;;;;;;;4970337;28;58727;-71
2023/04/08 07:41:45;;;;;;;4.78;1.20;;;;;;;;;;4971549;28;58995;-71
2023/04/08 07:44:10;;;;;;;1.60;1.50;;;;;;;;;;4971291;28;58910;-71
2023/04/08 07:46:37;;;;;;;1.70;0.83;;;;;;;;;;4971526;28;58600;-71
2023/04/08 07:49:02;;;;;;;1.50;1.40;;;;;;;;;;4982469;28;59597;-71
2023/04/08 07:51:27;;;;;;;1.33;1.13;;;;;;;;;;4975831;28;58774;-71
2023/04/08 07:53:53;;;;;;;1.97;1.13;;;;;;;;;;4972964;28;58111;-67
2023/04/08 07:56:18;;;;;;;3.40;2.05;;;;;;;;;;4967688;28;59516;-68
2023/04/08 07:58:43;;;;;;;12.63;2.47;;;;;;;;;;4965684;28;58287;-68
2023/04/08 08:01:18;;;;;;;2.80;1.83;;;;;;;;;;4970972;28;58343;-68
2023/04/08 08:03:44;;;;;;;4.93;2.03;;;;;;;;;;4966581;28;58825;-69
2023/04/08 08:06:12;;;;;;;3.75;2.65;;;;;;;;;;4973506;28;60212;-68
2023/04/08 08:08:37;;;;;;;2.40;1.80;;;;;;;;;;4961603;28;58795;-68
2023/04/08 08:11:02;;;;;;;4.00;2.80;;;;;;;;;;4967622;28;58339;-68
2023/04/08 08:13:28;;;;;;;3.80;2.70;;;;;;;;;;4976479;28;58853;-67
2023/04/08 08:15:53;;;;;;;3.50;2.33;;;;;;;;;;4975075;28;58878;-70
2023/04/08 08:18:18;;;;;;;5.28;3.53;;;;;;;;;;4977801;28;58680;-68
2023/04/08 08:20:43;;;;;;;2.50;1.98;;;;;;;;;;4967563;28;58381;-68
2023/04/08 08:23:08;;;;;;;3.80;1.98;;;;;;;;;;4981058;28;58505;-68
2023/04/08 08:25:33;;;;;;;2.30;2.10;;;;;;;;;;4976650;28;59394;-68
2023/04/08 08:27:58;;;;;;;3.08;1.90;;;;;;;;;;4978394;28;58743;-69
2023/04/08 08:30:25;;;;;;;2.00;1.75;;;;;;;;;;4972710;28;58474;-68
2023/04/08 08:32:50;;;;;;;2.35;1.90;;;;;;;;;;4973344;28;59024;-68
2023/04/08 08:35:16;;;;;;;6.07;2.72;;;;;;;;;;4975072;28;59303;-68
2023/04/08 08:37:41;;;;;;;5.83;1.60;;;;;;;;;;4976202;28;58520;-68
2023/04/08 08:40:07;;;;;;;2.30;1.67;;;;;;;;;;4977299;28;59895;-68
2023/04/08 08:42:32;;;;;;;2.17;1.98;;;;;;;;;;4972396;28;58664;-67
2023/04/08 08:45:00;;;;;;;2.33;2.03;;;;;;;;;;4980396;28;58775;-68
2023/04/08 08:47:25;;;;;;;2.75;2.00;;;;;;;;;;4979025;28;58727;-68
2023/04/08 08:49:50;;;;;;;1.90;1.80;;;;;;;;;;4979761;28;58382;-68
2023/04/08 08:52:16;;;;;;;2.10;1.73;;;;;;;;;;4980892;28;58630;-68
2023/04/08 08:54:42;;;;;;;2.05;1.90;;;;;;;;;;4973735;28;58349;-68
2023/04/08 08:57:17;;;;;;;1.63;1.52;;;;;;;;;;4969734;28;58810;-68
2023/04/08 08:59:44;;;;;;;3.92;1.95;;;;;;;;;;4973448;28;59553;-68
2023/04/08 09:02:22;;;;;;;2.28;2.05;;;;;;;;;;4976607;28;58727;-68
2023/04/08 09:04:55;;;;;;;1.83;1.65;;;;;;;;;;4973965;28;59014;-68
2023/04/08 09:07:24;;;;;;;4.28;1.50;;;;;;;;;;4972027;28;58823;-68
2023/04/08 09:09:50;;;;;;;2.83;1.90;;;;;;;;;;4970001;28;58642;-68
2023/04/08 09:12:15;;;;;;;1.95;1.70;;;;;;;;;;4971174;28;58725;-68
2023/04/08 09:14:41;;;;;;;1.97;1.70;;;;;;;;;;4976322;28;58633;-68
2023/04/08 09:17:06;;;;;;;1.92;1.80;;;;;;;;;;4977592;28;58586;-69
2023/04/08 09:19:31;;;;;;;1.93;1.57;;;;;;;;;;4969821;28;58317;-68
2023/04/08 09:22:03;;;;;;;3.28;1.65;;;;;;;;;;4973089;28;58140;-68
2023/04/08 09:24:29;;;;;;;2.92;1.98;;;;;;;;;;4979036;28;58733;-68
2023/04/08 09:26:55;;;;;;;1.88;1.40;;;;;;;;;;4976306;28;58441;-69
2023/04/08 09:29:22;;;;;;;4.28;1.52;;;;;;;;;;4978770;28;58728;-70
2023/04/08 09:31:52;;;;;;;1.67;1.58;;;;;;;;;;4968957;28;58708;-68
2023/04/08 09:34:19;;;;;;;2.08;1.48;;;;;;;;;;4978576;28;58870;-68
2023/04/08 09:36:45;;;;;;;2.97;1.65;;;;;;;;;;4980006;28;58105;-68
2023/04/08 09:39:10;;;;;;;4.88;1.73;;;;;;;;;;4978244;28;59466;-68
2023/04/08 09:41:36;;;;;;;1.40;1.30;;;;;;;;;;4971180;28;58757;-68
2023/04/08 09:44:03;;;;;;;1.90;1.60;;;;;;;;;;4974239;28;58356;-69
2023/04/08 09:46:32;;;;;;;4.38;1.58;;;;;;;;;;4972992;28;60041;-68
2023/04/08 09:49:03;;;;;;;2.95;1.20;;;;;;;;;;4971769;28;58654;-68
2023/04/08 09:51:32;;;;;;;1.48;1.30;;;;;;;;;;4972800;28;58638;-68
2023/04/08 09:54:01;;;;;;;2.50;1.45;;;;;;;;;;4973581;28;58774;-68
2023/04/08 09:56:29;;;;;;;2.95;1.65;;;;;;;;;;4975776;28;57889;-68
2023/04/08 09:58:57;;;;;;;1.58;1.48;;;;;;;;;;4975582;28;59125;-68
2023/04/08 10:01:22;;;;;;;;;;;;;;;;;;4974870;28;58765;-68
2023/04/08 10:03:51;;;;;;;2.42;1.70;;;;;;;;;;4970336;28;58726;-69
2023/04/08 10:06:16;;;;;;;1.40;1.30;;;;;;;;;;4974211;28;59065;-68
2023/04/08 10:08:42;;;;;;;1.17;1.08;;;;;;;;;;4964529;28;58866;-69
2023/04/08 10:11:07;;;;;;;2.22;1.38;;;;;;;;;;4977141;28;58405;-69
2023/04/08 10:13:33;;;;;;;1.23;1.13;;;;;;;;;;4963857;28;58799;-68
2023/04/08 10:16:17;;;;;;;1.77;1.67;;;;;;;;;;4972971;28;58924;-69
2023/04/08 10:18:43;;;;;;;4.05;1.42;;;;;;;;;;4962641;28;58447;-69
2023/04/08 10:21:34;;;;;;;3.00;2.17;;;;;;;;;;4973629;28;58833;-68
2023/04/08 10:24:05;;;;;;;2.75;1.85;;;;;;;;;;4973785;28;58718;-69
2023/04/08 10:26:33;;;;;;;1.80;1.70;;;;;;;;;;4973439;28;58259;-68
2023/04/08 10:29:31;;;;;;;3.90;1.83;;;;;;;;;;4975158;28;58361;-69
2023/04/08 10:31:56;;;;;;;2.25;1.67;;;;;;;;;;4941248;28;58597;-69
2023/04/08 10:34:24;;;;;;;2.20;1.37;;;;;;;;;;4980490;28;59096;-69
2023/04/08 10:36:49;;;;;;;3.28;1.83;;;;;;;;;;4965941;28;57960;-69
2023/04/08 10:39:15;;;;;;;1.57;1.43;;;;;;;;;;4978571;28;58403;-69
2023/04/08 10:41:44;;;;;;;1.90;1.30;;;;;;;;;;4976849;28;59437;-68
2023/04/08 10:44:19;;;;;;;4.03;1.40;;;;;;;;;;4978076;28;58453;-68
2023/04/08 10:46:48;;;;;;;1.85;1.63;;;;;;;;;;4977847;28;58790;-68
2023/04/08 10:49:13;;;;;;;4.90;2.35;;;;;;;;;;4968439;28;58521;-69
2023/04/08 10:51:38;;;;;;;1.40;1.30;;;;;;;;;;4971626;28;58189;-69
2023/04/08 10:54:07;;;;;;;3.33;1.90;;;;;;;;;;4982119;28;58302;-69
2023/04/08 10:56:33;;;;;;;2.65;1.30;;;;;;;;;;4974434;28;63107;-68
2023/04/08 10:58:58;;;;;;;3.33;1.83;;;;;;;;;;4975903;28;60080;-69
2023/04/08 11:01:24;;;;;;;1.38;1.25;;;;;;;;;;4975228;28;58811;-68
2023/04/08 11:03:50;;;;;;;3.72;1.52;;;;;;;;;;4977871;28;58156;-68
2023/04/08 11:06:16;;;;;;;2.20;1.50;;;;;;;;;;4978353;28;58053;-69
2023/04/08 11:08:43;;;;;;;1.38;1.27;;;;;;;;;;4978524;28;59409;-68
2023/04/08 11:11:09;;;;;;;5.40;1.52;;;;;;;;;;4971862;28;58690;-69
2023/04/08 11:13:41;;;;;;;1.90;1.40;;;;;;;;;;4979196;28;59962;-68
2023/04/08 11:16:09;;;;;;;4.05;1.00;;;;;;;;;;4977862;28;58650;-69
2023/04/08 11:18:35;;;;;;;;;;;;;;;;;;4978775;28;58538;-69
2023/04/08 11:21:01;;;;;;;2.47;2.28;;;;;;;;;;4971009;28;58799;-69
2023/04/08 11:23:26;;;;;;;2.70;1.70;;;;;;;;;;4982522;28;59001;-69
2023/04/08 11:25:51;;;;;;;2.67;1.50;;;;;;;;;;4982116;28;58386;-69
2023/04/08 11:28:17;;;;;;;1.87;1.70;;;;;;;;;;4973537;28;58096;-70
2023/04/08 11:30:42;;;;;;;1.70;1.50;;;;;;;;;;4981292;28;58754;-68
2023/04/08 11:33:07;;;;;;;2.13;1.97;;;;;;;;;;4978329;28;58623;-68
2023/04/08 11:35:33;;;;;;;1.77;1.67;;;;;;;;;;4975933;28;58710;-69
2023/04/08 11:37:58;;;;;;;4.17;2.13;;;;;;;;;;4982154;28;59404;-69
2023/04/08 11:40:23;;;;;;;3.13;1.23;;;;;;;;;;4978893;28;58802;-69
2023/04/08 11:42:52;;;;;;;1.92;1.83;;;;;;;;;;4972519;28;58419;-69
2023/04/08 11:45:18;;;;;;;3.50;2.22;;;;;;;;;;4983497;28;59382;-68
2023/04/08 11:47:44;;;;;;;2.60;1.75;;;;;;;;;;4978905;28;58533;-68
2023/04/08 11:50:10;;;;;;;3.33;1.77;;;;;;;;;;4981589;28;58312;-69
2023/04/08 11:52:42;;;;;;;2.10;1.70;;;;;;;;;;4973406;28;58732;-68
2023/04/08 11:55:08;;;;;;;5.57;2.70;;;;;;;;;;4976932;28;58395;-68
2023/04/08 11:57:35;;;;;;;2.00;1.55;;;;;;;;;;4981787;28;58258;-69
2023/04/08 12:00:00;;;;;;;2.63;1.75;;;;;;;;;;4979938;28;59424;-69
2023/04/08 12:02:25;;;;;;;1.60;1.50;;;;;;;;;;4979993;28;58306;-69
2023/04/08 12:04:51;;;;;;;1.97;1.40;;;;;;;;;;4975698;28;58461;-69
2023/04/08 12:07:16;;;;;;;3.22;2.17;;;;;;;;;;4978702;28;58372;-68
2023/04/08 12:09:41;;;;;;;2.08;1.52;;;;;;;;;;4979903;28;58599;-69
2023/04/08 12:12:06;;;;;;;2.03;1.23;;;;;;;;;;4979144;28;58646;-68
2023/04/08 12:14:32;;;;;;;2.40;1.37;;;;;;;;;;4974309;28;58978;-69
2023/04/08 12:16:57;;;;;;;4.55;2.03;;;;;;;;;;4981409;28;58733;-69
2023/04/08 12:19:22;;;;;;;2.22;1.63;;;;;;;;;;4982713;28;58373;-68
2023/04/08 12:21:47;;;;;;;2.80;1.93;;;;;;;;;;4978014;28;58696;-69
2023/04/08 12:24:12;;;;;;;4.63;1.42;;;;;;;;;;4981080;28;58379;-69
2023/04/08 12:26:38;;;;;;;2.72;1.65;;;;;;;;;;4971499;28;59289;-68
2023/04/08 12:29:03;;;;;;;2.97;2.00;;;;;;;;;;4981234;28;58757;-68
2023/04/08 12:31:28;;;;;;;6.93;2.57;;;;;;;;;;4981934;28;58704;-67
2023/04/08 12:33:53;;;;;;;2.60;1.63;;;;;;;;;;4978209;28;58645;-68
2023/04/08 12:36:18;;;;;;;6.72;2.63;;;;;;;;;;4979638;28;58794;-69
2023/04/08 12:38:43;;;;;;;3.13;2.10;;;;;;;;;;4973357;28;59319;-69
2023/04/08 12:41:09;;;;;;;4.50;2.67;;;;;;;;;;4977410;28;58529;-69
2023/04/08 12:43:34;;;;;;;4.53;2.05;;;;;;;;;;4978118;28;58679;-69
2023/04/08 12:46:00;;;;;;;5.30;1.80;;;;;;;;;;4978703;28;58285;-69
2023/04/08 12:48:26;;;;;;;5.72;1.70;;;;;;;;;;4971730;28;58325;-69
2023/04/08 12:50:52;;;;;;;4.95;1.83;;;;;;;;;;4971586;28;59058;-68
2023/04/08 12:53:17;;;;;;;4.33;1.87;;;;;;;;;;4973902;28;59368;-69
2023/04/08 12:55:42;;;;;;;3.63;1.75;;;;;;;;;;4975812;28;58773;-69
2023/04/08 12:58:07;;;;;;;4.30;2.20;;;;;;;;;;4969382;28;58977;-69
2023/04/08 13:00:32;;;;;;;2.23;1.60;;;;;;;;;;4965896;28;60045;-68
2023/04/08 13:02:57;;;;;;;6.77;1.90;;;;;;;;;;4970968;28;58373;-68
2023/04/08 13:05:22;;;;;;;8.82;2.53;;;;;;;;;;4976506;28;58983;-69
2023/04/08 13:07:48;;;;;;;2.80;1.67;;;;;;;;;;4977895;28;58359;-69
2023/04/08 13:10:13;;;;;;;2.53;1.60;;;;;;;;;;4979618;28;59226;-69
2023/04/08 13:12:39;;;;;;;6.53;2.93;;;;;;;;;;4968351;28;58475;-69
2023/04/08 13:15:05;;;;;;;6.20;1.70;;;;;;;;;;4978237;28;58762;-69
2023/04/08 13:17:30;;;;;;;7.45;2.83;;;;;;;;;;4976086;28;59185;-68
2023/04/08 13:19:55;;;;;;;3.23;1.90;;;;;;;;;;4978939;28;58054;-69
2023/04/08 13:22:20;;;;;;;3.37;1.83;;;;;;;;;;4968249;28;58465;-68
2023/04/08 13:24:45;;;;;;;3.88;2.05;;;;;;;;;;4978825;28;58367;-69
2023/04/08 13:27:10;;;;;;;4.22;2.25;;;;;;;;;;4979860;28;58705;-69
2023/04/08 13:29:36;;;;;;;2.80;1.90;;;;;;;;;;4977362;28;58137;-69
2023/04/08 13:32:01;;;;;;;2.28;1.80;;;;;;;;;;4978675;28;58496;-71
2023/04/08 13:34:26;;;;;;;6.72;2.15;;;;;;;;;;4975851;28;58518;-70
2023/04/08 13:36:51;;;;;;;3.53;1.98;;;;;;;;;;4975272;28;58298;-69
2023/04/08 13:39:16;;;;;;;4.97;1.50;;;;;;;;;;4982082;28;58576;-75
2023/04/08 13:41:42;;;;;;;5.78;1.90;;;;;;;;;;4978179;28;58003;-74
2023/04/08 13:44:07;;;;;;;4.90;2.10;;;;;;;;;;4977323;28;58175;-74
2023/04/08 13:46:32;;;;;;;3.58;2.83;;;;;;;;;;4977415;28;58480;-72
2023/04/08 13:48:57;;;;;;;4.03;2.17;;;;;;;;;;4978567;28;58398;-71
2023/04/08 13:51:22;;;;;;;3.43;2.00;;;;;;;;;;4978831;28;58535;-69
2023/04/08 13:53:47;;;;;;;6.90;2.58;;;;;;;;;;4970934;28;58576;-70
2023/04/08 13:56:12;;;;;;;4.63;2.60;;;;;;;;;;4977128;28;59082;-69
2023/04/08 13:58:39;;;;;;;3.75;2.63;;;;;;;;;;4972868;28;59817;-70
2023/04/08 14:01:04;;;;;;;12.15;3.10;;;;;;;;;;4973820;28;59269;-68
2023/04/08 14:03:30;;;;;;;2.50;1.92;;;;;;;;;;4972158;28;58854;-69
2023/04/08 14:05:55;;;;;;;10.95;1.92;;;;;;;;;;4972528;28;58522;-70
2023/04/08 14:08:24;;;;;;;3.15;2.50;;;;;;;;;;4967011;28;59399;-69
2023/04/08 14:10:50;;;;;;;5.57;3.05;;;;;;;;;;4976478;28;58683;-69
2023/04/08 14:13:15;;;;;;;5.18;2.95;;;;;;;;;;4980907;28;58776;-69
2023/04/08 14:15:41;;;;;;;8.60;3.50;;;;;;;;;;4978876;28;58822;-69
2023/04/08 14:18:06;;;;;;;8.03;3.17;;;;;;;;;;4976341;28;58400;-69
2023/04/08 14:20:31;;;;;;;13.48;3.30;;;;;;;;;;4979010;28;58484;-69
2023/04/08 14:22:56;;;;;;;8.80;3.33;;;;;;;;;;4975963;28;58442;-69
2023/04/08 14:25:22;;;;;;;7.68;2.88;;;;;;;;;;4976925;28;58796;-70
2023/04/08 14:27:49;;;;;;;8.37;2.60;;;;;;;;;;4972902;28;58606;-69
2023/04/08 14:30:14;;;;;;;4.53;2.90;;;;;;;;;;4979708;28;58558;-75
2023/04/08 14:32:40;;;;;;;12.32;3.03;;;;;;;;;;4980714;28;58609;-71
2023/04/08 14:35:05;;;;;;;5.80;3.20;;;;;;;;;;4976686;28;58663;-70